Nearby METAR Reports

EGBB - Birmingham Airport
Distance: SSW 46mi, 74km
Updated: 21/06/2018 04:50
Few Clouds
Few Clouds
 Wind from NW
Wind: NW 14 mph , 22 km/h
Temperature: 11°C
Dew Point: 6°C
Humidity: 72%
Barometer: 1023 hPa
Clouds: Few Clouds
Visibility: 6 miles , 10 km
Cloud details: Few Clouds 853 m
2018/06/21 03:50 EGBB 210350Z 31012KT 9999 FEW028 11/06 Q1023
EGBE - Coventry Airport
Distance: S 49mi, 79km
Updated: 18/07/2017 14:50
NOT Current
Clear
Clear
 Wind from E
Wind: E 16 mph , 26 km/h
Temperature: 27°C
Heat Index: 27°C
Dew Point: 14°C
Humidity: 45%
Barometer: 1015 hPa
Summary: Clear
Visibility: greater than 7 miles , 10 km
2017/07/18 13:50 EGBE 181350Z 10014KT 060V120 CAVOK 27/14 Q1015
EGCC - Manchester International
Distance: WNW 45mi, 72km
Updated: 21/06/2018 05:20
Overcast
Overcast
 Wind from WNW
Wind: WNW 9 mph , 15 km/h
Temperature: 10°C
Wind Chill: 8°C
Dew Point: 5°C
Humidity: 71%
Barometer: 1023 hPa
Clouds: Overcast
Visibility: 6 miles , 10 km
Cloud details: Partly cloudy 945 m
Overcast 1280 m
2018/06/21 04:20 EGCC 210420Z AUTO 29008KT 260V320 9999 SCT031 OVC042 10/05 Q1023
 
EGCN - Doncaster Sheffield
Distance: NNE 31mi, 50km
Updated: 21/06/2018 05:20
Clear
Clear
 Wind from W
Wind: W 12 mph , 19 km/h
Temperature: 10°C
Wind Chill: 7°C
Dew Point: 5°C
Humidity: 71%
Barometer: 1022 hPa
Summary: Clear
Visibility: greater than 7 miles , 10 km
2018/06/21 04:20 EGCN 210420Z 28010KT CAVOK 10/05 Q1022
EGNX - East Midlands
Distance: S 18mi, 28km
Updated: 21/06/2018 05:20
Few Clouds
Few Clouds
 Wind from WNW
Wind: WNW 14 mph , 22 km/h
Temperature: 9°C
Wind Chill: 6°C
Dew Point: 6°C
Humidity: 82%
Barometer: 1022 hPa
Clouds: Few Clouds
Visibility: 6 miles , 10 km
Cloud details: Few Clouds 732 m
2018/06/21 04:20 EGNX 210420Z 30012KT 9999 FEW024 09/06 Q1022
EGXC - Coningsby RAF
Distance: E 47mi, 75km
Updated: 21/06/2018 04:50
Few Clouds
Few Clouds
 Wind from WNW
Wind: WNW 10 mph , 17 km/h
Temperature: 11°C
Dew Point: 6°C
Humidity: 72%
Barometer: 1020 hPa
Clouds: Few Clouds
Visibility: 6 miles , 10 km
Cloud details: Few Clouds 671 m
2018/06/21 03:50 EGXC 210350Z 30009KT 9999 FEW022 11/06 Q1020 BLU
 
EGXP - Scampton RAF
Distance: ENE 35mi, 56km
Updated: 21/06/2018 04:50
Few Clouds
Few Clouds
 Wind from WNW
Wind: WNW 16 mph , 26 km/h
Temperature: 9°C
Wind Chill: 6°C
Dew Point: 6°C
Humidity: 82%
Barometer: 1020 hPa
Clouds: Few Clouds
Visibility: 6 miles , 10 km
Cloud details: Few Clouds 1829 m
2018/06/21 03:50 EGXP 210350Z AUTO 30014KT 9999 // FEW060/// 09/06 Q1020
EGXS - Swinderby RAF
Distance: ENE 26mi, 42km
Updated: 21/06/2018 04:50
Few Clouds
Few Clouds
 Wind from WSW
Wind: WSW 6 mph , 9 km/h
Temperature: 9°C
Wind Chill: 7°C
Dew Point: 6°C
Humidity: 82%
Barometer: 1019 hPa
Clouds: Few Clouds
Visibility: 6 miles , 10 km
Cloud details: Few Clouds 2134 m
2018/06/21 03:50 EGXS 210350Z AUTO 25005KT 9999 // FEW070/// 09/06 Q1019
EGXT - Wittering RAF
Distance: SE 47mi, 75km
Updated: 21/06/2018 04:50
Clear
Clear
 Wind from W
Wind: W 13 mph , 20 km/h
Temperature: 9°C
Wind Chill: 6°C
Dew Point: 6°C
Humidity: 82%
Barometer: 1021 hPa
Clouds: Clear
Visibility: 6 miles , 10 km
2018/06/21 03:50 EGXT 210350Z AUTO 28011KT 9999 NCD 09/06 Q1021
 
EGXW - Waddington RAF
Distance: ENE 33mi, 53km
Updated: 21/06/2018 04:50
Few Clouds
Few Clouds
 Wind from NW
Wind: NW 10 mph , 17 km/h
Temperature: 10°C
Wind Chill: 8°C
Dew Point: 5°C
Humidity: 71%
Barometer: 1021 hPa
Clouds: Few Clouds
Visibility: 6 miles , 10 km
Cloud details: Few Clouds 1829 m
2018/06/21 03:50 EGXW 210350Z AUTO 31009KT 9999 FEW060/// 10/05 Q1021
EGYD - Cranwell RAF
Distance: E 33mi, 53km
Updated: 21/06/2018 04:50
Few Clouds
Few Clouds
 Wind from WNW
Wind: WNW 15 mph , 24 km/h
Temperature: 10°C
Wind Chill: 7°C
Dew Point: 5°C
Humidity: 71%
Barometer: 1021 hPa
Clouds: Few Clouds
Visibility: 6 miles , 10 km
Cloud details: Few Clouds 1524 m
2018/06/21 03:50 EGYD 210350Z AUTO 30013KT 9999 // FEW050/// 10/05 Q1021
EGYE - Barkston Heath RAF
Distance: ESE 31mi, 50km
Updated: 20/06/2018 15:50
NOT Current
Mostly cloudy
Mostly cloudy
 Wind from WSW
Wind: WSW 23 mph , 37 km/h
Barometer: 1017 hPa
Clouds: Mostly cloudy
Visibility: 6 miles , 10 km
Cloud details: Few Clouds 1067 m
Mostly cloudy 1524 m
2018/06/20 14:50 EGYE 201450Z 25020KT 9999 FEW035 BKN050 ///// Q1017 BLU